TWB224 RKSS-RKPC
Flight info
| Callsign | TWB224 |
|---|---|
| Flight time | 0h 48m |
| Altitude | 24000 |
| Route | BULTI Y711 DOTOL |
| Aircraft | B738/M-VGDW/C |
Departure
| Time | 2026-04-28 15:11 |
|---|---|
| Airport | Gimpo International Airport (RKSS) |
Arrival
| Time | 2026-04-28 15:59 |
|---|---|
| Airport | Jeju International Airport (RKPC) |
| Time | Latitude | Longitude | Altitude | Speed | Heading |
|---|---|---|---|---|---|
| 2026-04-28 14:45 | 37.55964 | 126.80070 | 59 ft | 0 kts | 45° |
| 2026-04-28 14:45 | 37.55965 | 126.80071 | 59 ft | 0 kts | 45° |
| 2026-04-28 15:00 | 37.55962 | 126.80067 | 58 ft | 2 kts | 45° |
| 2026-04-28 15:00 | 37.55948 | 126.80050 | 66 ft | 3 kts | 44° |
| 2026-04-28 15:01 | 37.55934 | 126.80032 | 57 ft | 3 kts | 44° |
| 2026-04-28 15:01 | 37.55919 | 126.80015 | 60 ft | 3 kts | 46° |
| 2026-04-28 15:01 | 37.55905 | 126.79996 | 57 ft | 3 kts | 53° |
| 2026-04-28 15:01 | 37.55895 | 126.79975 | 57 ft | 3 kts | 77° |
| 2026-04-28 15:02 | 37.55894 | 126.79959 | 57 ft | 1 kts | 118° |
| 2026-04-28 15:02 | 37.55895 | 126.79957 | 57 ft | 0 kts | 120° |
| 2026-04-28 15:04 | 37.55893 | 126.79962 | 57 ft | 2 kts | 120° |
| 2026-04-28 15:04 | 37.55866 | 126.79999 | 65 ft | 9 kts | 134° |
| 2026-04-28 15:05 | 37.55814 | 126.80064 | 60 ft | 11 kts | 135° |
| 2026-04-28 15:05 | 37.55762 | 126.80130 | 61 ft | 11 kts | 134° |
| 2026-04-28 15:05 | 37.55710 | 126.80195 | 66 ft | 10 kts | 135° |
| 2026-04-28 15:05 | 37.55660 | 126.80257 | 62 ft | 10 kts | 135° |
| 2026-04-28 15:06 | 37.55610 | 126.80315 | 58 ft | 10 kts | 154° |
| 2026-04-28 15:06 | 37.55552 | 126.80283 | 64 ft | 10 kts | 224° |
| 2026-04-28 15:06 | 37.55506 | 126.80225 | 56 ft | 9 kts | 225° |
| 2026-04-28 15:06 | 37.55456 | 126.80178 | 61 ft | 9 kts | 189° |
| 2026-04-28 15:07 | 37.55405 | 126.80217 | 65 ft | 9 kts | 134° |
| 2026-04-28 15:07 | 37.55357 | 126.80278 | 65 ft | 12 kts | 135° |
| 2026-04-28 15:07 | 37.55284 | 126.80369 | 63 ft | 16 kts | 135° |
| 2026-04-28 15:07 | 37.55199 | 126.80477 | 63 ft | 18 kts | 135° |
| 2026-04-28 15:08 | 37.55111 | 126.80588 | 61 ft | 18 kts | 135° |
| 2026-04-28 15:08 | 37.55026 | 126.80695 | 58 ft | 17 kts | 135° |
| 2026-04-28 15:08 | 37.54953 | 126.80786 | 62 ft | 11 kts | 134° |
| 2026-04-28 15:08 | 37.54912 | 126.80833 | 62 ft | 7 kts | 158° |
| 2026-04-28 15:09 | 37.54868 | 126.80812 | 57 ft | 8 kts | 224° |
| 2026-04-28 15:09 | 37.54835 | 126.80770 | 52 ft | 8 kts | 225° |
| 2026-04-28 15:09 | 37.54799 | 126.80721 | 56 ft | 5 kts | 231° |
| 2026-04-28 15:09 | 37.54793 | 126.80697 | 59 ft | 4 kts | 274° |
| 2026-04-28 15:10 | 37.54806 | 126.80674 | 57 ft | 0 kts | 314° |
| 2026-04-28 15:10 | 37.54810 | 126.80670 | 55 ft | 4 kts | 316° |
| 2026-04-28 15:10 | 37.54990 | 126.80444 | 57 ft | 71 kts | 315° |
| 2026-04-28 15:11 | 37.55495 | 126.79810 | 60 ft | 133 kts | 315° |
| 2026-04-28 15:11 | 37.56261 | 126.78840 | 210 ft | 167 kts | 314° |
| 2026-04-28 15:11 | 37.57051 | 126.77814 | 1025 ft | 161 kts | 314° |
| 2026-04-28 15:11 | 37.57819 | 126.76805 | 1862 ft | 158 kts | 314° |
| 2026-04-28 15:12 | 37.58568 | 126.75812 | 2685 ft | 154 kts | 315° |
| 2026-04-28 15:12 | 37.59309 | 126.74818 | 3382 ft | 160 kts | 314° |
| 2026-04-28 15:12 | 37.60135 | 126.73709 | 3708 ft | 188 kts | 315° |
| 2026-04-28 15:12 | 37.61087 | 126.72433 | 3915 ft | 211 kts | 315° |
| 2026-04-28 15:13 | 37.62022 | 126.70875 | 4095 ft | 239 kts | 296° |
| 2026-04-28 15:13 | 37.62301 | 126.68728 | 4546 ft | 260 kts | 265° |
| 2026-04-28 15:13 | 37.61567 | 126.66610 | 5313 ft | 271 kts | 233° |
| 2026-04-28 15:13 | 37.60291 | 126.64882 | 6168 ft | 274 kts | 229° |
| 2026-04-28 15:14 | 37.58967 | 126.63135 | 6949 ft | 277 kts | 229° |
| 2026-04-28 15:14 | 37.57639 | 126.61364 | 7766 ft | 277 kts | 230° |
| 2026-04-28 15:14 | 37.56191 | 126.59738 | 8569 ft | 283 kts | 211° |
| 2026-04-28 15:14 | 37.54287 | 126.59030 | 9369 ft | 289 kts | 190° |
| 2026-04-28 15:15 | 37.52273 | 126.58752 | 10152 ft | 292 kts | 188° |
| 2026-04-28 15:15 | 37.50911 | 126.58591 | 10425 ft | 303 kts | 188° |
| 2026-04-28 15:15 | 37.47951 | 126.58234 | 10656 ft | 334 kts | 188° |
| 2026-04-28 15:15 | 37.45571 | 126.57927 | 10897 ft | 352 kts | 189° |
| 2026-04-28 15:16 | 37.43138 | 126.57605 | 11446 ft | 358 kts | 190° |
| 2026-04-28 15:16 | 37.40656 | 126.57313 | 12259 ft | 359 kts | 186° |
| 2026-04-28 15:16 | 37.38151 | 126.57731 | 13028 ft | 369 kts | 171° |
| 2026-04-28 15:16 | 37.35638 | 126.58512 | 13768 ft | 373 kts | 172° |
| 2026-04-28 15:17 | 37.33099 | 126.59250 | 14428 ft | 376 kts | 174° |
| 2026-04-28 15:17 | 37.30542 | 126.60005 | 15104 ft | 380 kts | 172° |
| 2026-04-28 15:17 | 37.27976 | 126.60864 | 15809 ft | 383 kts | 172° |
| 2026-04-28 15:17 | 37.25395 | 126.61742 | 16491 ft | 386 kts | 173° |
| 2026-04-28 15:18 | 37.23674 | 126.62320 | 16938 ft | 387 kts | 174° |
| 2026-04-28 15:18 | 37.20166 | 126.63484 | 17774 ft | 392 kts | 175° |
| 2026-04-28 15:18 | 37.17547 | 126.64343 | 18374 ft | 396 kts | 175° |
| 2026-04-28 15:18 | 37.14875 | 126.65220 | 18909 ft | 399 kts | 175° |
| 2026-04-28 15:19 | 37.13056 | 126.65817 | 19290 ft | 400 kts | 176° |
| 2026-04-28 15:19 | 37.09477 | 126.66994 | 20029 ft | 403 kts | 176° |
| 2026-04-28 15:19 | 37.07678 | 126.67585 | 20396 ft | 404 kts | 176° |
| 2026-04-28 15:19 | 37.04947 | 126.68482 | 20951 ft | 406 kts | 176° |
| 2026-04-28 15:20 | 37.02197 | 126.69383 | 21484 ft | 409 kts | 177° |
| 2026-04-28 15:20 | 36.99438 | 126.70288 | 22000 ft | 411 kts | 177° |
| 2026-04-28 15:20 | 36.96656 | 126.71202 | 22501 ft | 414 kts | 177° |
| 2026-04-28 15:20 | 36.93864 | 126.72120 | 22993 ft | 416 kts | 177° |
| 2026-04-28 15:21 | 36.91051 | 126.73043 | 23505 ft | 418 kts | 178° |
| 2026-04-28 15:21 | 36.88244 | 126.74114 | 23979 ft | 428 kts | 172° |
| 2026-04-28 15:21 | 36.85458 | 126.75520 | 24063 ft | 434 kts | 169° |
| 2026-04-28 15:21 | 36.82679 | 126.77051 | 24100 ft | 438 kts | 168° |
| 2026-04-28 15:22 | 36.79919 | 126.78561 | 24106 ft | 439 kts | 169° |
| 2026-04-28 15:22 | 36.77109 | 126.80041 | 24086 ft | 436 kts | 170° |
| 2026-04-28 15:22 | 36.74298 | 126.81481 | 24104 ft | 436 kts | 170° |
| 2026-04-28 15:22 | 36.71465 | 126.82619 | 24097 ft | 416 kts | 184° |
| 2026-04-28 15:23 | 36.68658 | 126.82776 | 24131 ft | 400 kts | 192° |
| 2026-04-28 15:23 | 36.65863 | 126.82797 | 24130 ft | 403 kts | 192° |
| 2026-04-28 15:23 | 36.63049 | 126.82857 | 24122 ft | 405 kts | 191° |
| 2026-04-28 15:23 | 36.60228 | 126.82951 | 24134 ft | 407 kts | 191° |
| 2026-04-28 15:24 | 36.57394 | 126.83062 | 24134 ft | 408 kts | 191° |
| 2026-04-28 15:24 | 36.54551 | 126.83176 | 24091 ft | 408 kts | 190° |
| 2026-04-28 15:24 | 36.51716 | 126.83283 | 24122 ft | 408 kts | 189° |
| 2026-04-28 15:24 | 36.48875 | 126.83399 | 24130 ft | 408 kts | 191° |
| 2026-04-28 15:25 | 36.46025 | 126.83502 | 24132 ft | 410 kts | 191° |
| 2026-04-28 15:25 | 36.43169 | 126.83606 | 24135 ft | 411 kts | 191° |
| 2026-04-28 15:25 | 36.40313 | 126.83714 | 24136 ft | 411 kts | 191° |
| 2026-04-28 15:25 | 36.37472 | 126.83737 | 24131 ft | 403 kts | 195° |
| 2026-04-28 15:26 | 36.34697 | 126.83466 | 24112 ft | 398 kts | 197° |
| 2026-04-28 15:26 | 36.31947 | 126.83129 | 24135 ft | 396 kts | 198° |
| 2026-04-28 15:26 | 36.29246 | 126.82796 | 24145 ft | 395 kts | 197° |
| 2026-04-28 15:26 | 36.26469 | 126.82467 | 24146 ft | 396 kts | 197° |
| 2026-04-28 15:27 | 36.23754 | 126.82158 | 24145 ft | 397 kts | 197° |
| 2026-04-28 15:27 | 36.20992 | 126.81854 | 24148 ft | 398 kts | 197° |
| 2026-04-28 15:27 | 36.18233 | 126.81556 | 24145 ft | 398 kts | 197° |
| 2026-04-28 15:27 | 36.15468 | 126.81261 | 24140 ft | 399 kts | 196° |
| 2026-04-28 15:28 | 36.12693 | 126.80960 | 24132 ft | 400 kts | 197° |
| 2026-04-28 15:28 | 36.09914 | 126.80656 | 24148 ft | 401 kts | 197° |
| 2026-04-28 15:28 | 36.07132 | 126.80352 | 24150 ft | 401 kts | 196° |
| 2026-04-28 15:28 | 36.04384 | 126.80054 | 24161 ft | 401 kts | 196° |
| 2026-04-28 15:29 | 36.01602 | 126.79752 | 24155 ft | 402 kts | 196° |
| 2026-04-28 15:29 | 35.98818 | 126.79451 | 24155 ft | 402 kts | 196° |
| 2026-04-28 15:29 | 35.96031 | 126.79150 | 24137 ft | 402 kts | 196° |
| 2026-04-28 15:29 | 35.93248 | 126.78849 | 24145 ft | 402 kts | 196° |
| 2026-04-28 15:30 | 35.90462 | 126.78548 | 24148 ft | 402 kts | 196° |
| 2026-04-28 15:30 | 35.87676 | 126.78247 | 24155 ft | 402 kts | 196° |
| 2026-04-28 15:30 | 35.84893 | 126.77945 | 24162 ft | 402 kts | 196° |
| 2026-04-28 15:30 | 35.82110 | 126.77644 | 24165 ft | 402 kts | 196° |
| 2026-04-28 15:31 | 35.79319 | 126.77341 | 24161 ft | 402 kts | 196° |
| 2026-04-28 15:31 | 35.76524 | 126.77039 | 24147 ft | 402 kts | 196° |
| 2026-04-28 15:31 | 35.73738 | 126.76737 | 24154 ft | 402 kts | 196° |
| 2026-04-28 15:31 | 35.70988 | 126.76440 | 24159 ft | 402 kts | 196° |
| 2026-04-28 15:32 | 35.68197 | 126.76139 | 24168 ft | 402 kts | 196° |
| 2026-04-28 15:32 | 35.65401 | 126.75838 | 24159 ft | 403 kts | 196° |
| 2026-04-28 15:32 | 35.62608 | 126.75537 | 24169 ft | 403 kts | 196° |
| 2026-04-28 15:32 | 35.59809 | 126.75235 | 24160 ft | 403 kts | 196° |
| 2026-04-28 15:33 | 35.57010 | 126.74934 | 24153 ft | 403 kts | 196° |
| 2026-04-28 15:33 | 35.54216 | 126.74634 | 24163 ft | 403 kts | 196° |
| 2026-04-28 15:33 | 35.51419 | 126.74333 | 24164 ft | 403 kts | 196° |
| 2026-04-28 15:33 | 35.48627 | 126.74033 | 24171 ft | 403 kts | 196° |
| 2026-04-28 15:34 | 35.45855 | 126.73736 | 24167 ft | 404 kts | 195° |
| 2026-04-28 15:34 | 35.43048 | 126.73434 | 24167 ft | 405 kts | 196° |
| 2026-04-28 15:34 | 35.40240 | 126.73134 | 24159 ft | 405 kts | 196° |
| 2026-04-28 15:34 | 35.37438 | 126.72843 | 24152 ft | 403 kts | 195° |
| 2026-04-28 15:35 | 35.34647 | 126.72552 | 24156 ft | 402 kts | 195° |
| 2026-04-28 15:35 | 35.29079 | 126.71952 | 24170 ft | 401 kts | 196° |
| 2026-04-28 15:35 | 35.26294 | 126.71649 | 24158 ft | 401 kts | 196° |
| 2026-04-28 15:36 | 35.23515 | 126.71350 | 24165 ft | 401 kts | 196° |
| 2026-04-28 15:36 | 35.20734 | 126.71052 | 24173 ft | 401 kts | 195° |
| 2026-04-28 15:36 | 35.17945 | 126.70756 | 24138 ft | 402 kts | 195° |
| 2026-04-28 15:36 | 35.15151 | 126.70459 | 24148 ft | 402 kts | 195° |
| 2026-04-28 15:37 | 35.12399 | 126.70166 | 24152 ft | 402 kts | 195° |
| 2026-04-28 15:37 | 35.09607 | 126.69870 | 24155 ft | 403 kts | 195° |
| 2026-04-28 15:37 | 35.06812 | 126.69573 | 24159 ft | 403 kts | 195° |
| 2026-04-28 15:37 | 35.04007 | 126.69274 | 24174 ft | 404 kts | 195° |
| 2026-04-28 15:38 | 35.01200 | 126.68980 | 24158 ft | 405 kts | 195° |
| 2026-04-28 15:38 | 34.98387 | 126.68683 | 24154 ft | 405 kts | 195° |
| 2026-04-28 15:38 | 34.95589 | 126.68387 | 24154 ft | 402 kts | 195° |
| 2026-04-28 15:38 | 34.92846 | 126.68105 | 24142 ft | 387 kts | 195° |
| 2026-04-28 15:39 | 34.90203 | 126.67836 | 23928 ft | 378 kts | 196° |
| 2026-04-28 15:39 | 34.87611 | 126.67566 | 23611 ft | 372 kts | 196° |
| 2026-04-28 15:39 | 34.85041 | 126.67291 | 23155 ft | 368 kts | 196° |
| 2026-04-28 15:39 | 34.82502 | 126.67019 | 22704 ft | 364 kts | 196° |
| 2026-04-28 15:40 | 34.80016 | 126.66753 | 22260 ft | 361 kts | 195° |
| 2026-04-28 15:40 | 34.77524 | 126.66488 | 21858 ft | 357 kts | 195° |
| 2026-04-28 15:40 | 34.75050 | 126.66225 | 21413 ft | 355 kts | 195° |
| 2026-04-28 15:40 | 34.72592 | 126.65965 | 20992 ft | 352 kts | 195° |
| 2026-04-28 15:41 | 34.70157 | 126.65707 | 20574 ft | 350 kts | 195° |
| 2026-04-28 15:41 | 34.67739 | 126.65451 | 20161 ft | 347 kts | 195° |
| 2026-04-28 15:41 | 34.65371 | 126.65202 | 19756 ft | 344 kts | 195° |
| 2026-04-28 15:41 | 34.62958 | 126.64947 | 19335 ft | 342 kts | 195° |
| 2026-04-28 15:42 | 34.60626 | 126.64698 | 18945 ft | 340 kts | 194° |
| 2026-04-28 15:42 | 34.58271 | 126.64450 | 18509 ft | 339 kts | 194° |
| 2026-04-28 15:42 | 34.55925 | 126.64205 | 18058 ft | 337 kts | 194° |
| 2026-04-28 15:42 | 34.53595 | 126.63965 | 17626 ft | 334 kts | 194° |
| 2026-04-28 15:43 | 34.51286 | 126.63721 | 17211 ft | 332 kts | 194° |
| 2026-04-28 15:43 | 34.48988 | 126.63477 | 16790 ft | 330 kts | 193° |
| 2026-04-28 15:43 | 34.46737 | 126.63228 | 16422 ft | 326 kts | 194° |
| 2026-04-28 15:43 | 34.44473 | 126.62973 | 15959 ft | 325 kts | 193° |
| 2026-04-28 15:44 | 34.42242 | 126.62748 | 15617 ft | 320 kts | 192° |
| 2026-04-28 15:44 | 34.40028 | 126.62537 | 15253 ft | 317 kts | 192° |
| 2026-04-28 15:44 | 34.37825 | 126.62313 | 14895 ft | 315 kts | 192° |
| 2026-04-28 15:44 | 34.35641 | 126.62085 | 14529 ft | 314 kts | 192° |
| 2026-04-28 15:45 | 34.33466 | 126.61856 | 14163 ft | 313 kts | 192° |
| 2026-04-28 15:45 | 34.31295 | 126.61629 | 13762 ft | 312 kts | 191° |
| 2026-04-28 15:45 | 34.29117 | 126.61401 | 13235 ft | 315 kts | 191° |
| 2026-04-28 15:45 | 34.26967 | 126.61176 | 12821 ft | 314 kts | 191° |
| 2026-04-28 15:46 | 34.24774 | 126.61154 | 12409 ft | 319 kts | 179° |
| 2026-04-28 15:46 | 34.22577 | 126.61643 | 12033 ft | 321 kts | 174° |
| 2026-04-28 15:46 | 34.20396 | 126.62204 | 11642 ft | 320 kts | 174° |
| 2026-04-28 15:46 | 34.18223 | 126.62770 | 11248 ft | 318 kts | 173° |
| 2026-04-28 15:47 | 34.16052 | 126.63332 | 10877 ft | 317 kts | 173° |
| 2026-04-28 15:47 | 34.13903 | 126.63882 | 10590 ft | 313 kts | 173° |
| 2026-04-28 15:47 | 34.11808 | 126.64419 | 10452 ft | 303 kts | 173° |
| 2026-04-28 15:47 | 34.09773 | 126.64935 | 10310 ft | 295 kts | 174° |
| 2026-04-28 15:48 | 34.07791 | 126.65435 | 10177 ft | 287 kts | 174° |
| 2026-04-28 15:48 | 34.05888 | 126.65913 | 10055 ft | 279 kts | 174° |
| 2026-04-28 15:48 | 34.04010 | 126.66383 | 9858 ft | 274 kts | 174° |
| 2026-04-28 15:48 | 34.02149 | 126.66846 | 9569 ft | 272 kts | 174° |
| 2026-04-28 15:49 | 34.00301 | 126.67305 | 9296 ft | 270 kts | 174° |
| 2026-04-28 15:49 | 33.98441 | 126.67768 | 9016 ft | 269 kts | 173° |
| 2026-04-28 15:49 | 33.96639 | 126.68216 | 8746 ft | 267 kts | 173° |
| 2026-04-28 15:49 | 33.94821 | 126.68667 | 8464 ft | 266 kts | 173° |
| 2026-04-28 15:50 | 33.93013 | 126.69117 | 8197 ft | 264 kts | 173° |
| 2026-04-28 15:50 | 33.91214 | 126.69564 | 7917 ft | 263 kts | 172° |
| 2026-04-28 15:50 | 33.89421 | 126.70010 | 7654 ft | 262 kts | 172° |
| 2026-04-28 15:50 | 33.87632 | 126.70455 | 7387 ft | 261 kts | 172° |
| 2026-04-28 15:51 | 33.85855 | 126.70897 | 7119 ft | 260 kts | 172° |
| 2026-04-28 15:51 | 33.84080 | 126.71338 | 6844 ft | 260 kts | 172° |
| 2026-04-28 15:51 | 33.82335 | 126.71771 | 6583 ft | 259 kts | 172° |
| 2026-04-28 15:51 | 33.80566 | 126.72210 | 6304 ft | 259 kts | 172° |
| 2026-04-28 15:52 | 33.78799 | 126.72649 | 6015 ft | 259 kts | 172° |
| 2026-04-28 15:52 | 33.77034 | 126.73086 | 5737 ft | 259 kts | 172° |
| 2026-04-28 15:52 | 33.75273 | 126.73523 | 5473 ft | 258 kts | 171° |
| 2026-04-28 15:52 | 33.73517 | 126.73959 | 5204 ft | 258 kts | 171° |
| 2026-04-28 15:53 | 33.71759 | 126.74392 | 4940 ft | 257 kts | 170° |
| 2026-04-28 15:53 | 33.70008 | 126.74827 | 4671 ft | 257 kts | 168° |
| 2026-04-28 15:53 | 33.68256 | 126.75268 | 4402 ft | 257 kts | 170° |
| 2026-04-28 15:53 | 33.66505 | 126.75600 | 4162 ft | 251 kts | 184° |
| 2026-04-28 15:54 | 33.64920 | 126.75019 | 4010 ft | 230 kts | 219° |
| 2026-04-28 15:54 | 33.63793 | 126.73802 | 3980 ft | 209 kts | 237° |
| 2026-04-28 15:54 | 33.63035 | 126.72371 | 3970 ft | 201 kts | 244° |
| 2026-04-28 15:54 | 33.62290 | 126.70892 | 3604 ft | 205 kts | 244° |
| 2026-04-28 15:55 | 33.61557 | 126.69450 | 3502 ft | 200 kts | 243° |
| 2026-04-28 15:55 | 33.60851 | 126.68066 | 3485 ft | 189 kts | 244° |
| 2026-04-28 15:55 | 33.60177 | 126.66742 | 3409 ft | 187 kts | 244° |
| 2026-04-28 15:55 | 33.59488 | 126.65396 | 3140 ft | 187 kts | 244° |
| 2026-04-28 15:56 | 33.58821 | 126.64097 | 2894 ft | 182 kts | 244° |
| 2026-04-28 15:56 | 33.58175 | 126.62840 | 2671 ft | 175 kts | 245° |
| 2026-04-28 15:56 | 33.57538 | 126.61594 | 2428 ft | 174 kts | 245° |
| 2026-04-28 15:56 | 33.56908 | 126.60363 | 2162 ft | 172 kts | 245° |
| 2026-04-28 15:57 | 33.56296 | 126.59156 | 1949 ft | 165 kts | 240° |
| 2026-04-28 15:57 | 33.55712 | 126.58025 | 1710 ft | 158 kts | 239° |
| 2026-04-28 15:57 | 33.55138 | 126.56900 | 1509 ft | 155 kts | 238° |
| 2026-04-28 15:57 | 33.54572 | 126.55793 | 1293 ft | 155 kts | 238° |
| 2026-04-28 15:58 | 33.54006 | 126.54694 | 1057 ft | 156 kts | 239° |
| 2026-04-28 15:58 | 33.53438 | 126.53591 | 879 ft | 154 kts | 239° |
| 2026-04-28 15:58 | 33.52879 | 126.52489 | 670 ft | 155 kts | 240° |
| 2026-04-28 15:58 | 33.52316 | 126.51389 | 466 ft | 155 kts | 239° |
| 2026-04-28 15:59 | 33.51761 | 126.50305 | 251 ft | 153 kts | 238° |
| 2026-04-28 15:59 | 33.51388 | 126.49569 | 99 ft | 152 kts | 238° |
| 2026-04-28 15:59 | 33.50776 | 126.48373 | 92 ft | 89 kts | 238° |
| 2026-04-28 15:59 | 33.50556 | 126.47945 | 91 ft | 43 kts | 238° |
| 2026-04-28 16:00 | 33.50408 | 126.47662 | 94 ft | 33 kts | 233° |
| 2026-04-28 16:00 | 33.50290 | 126.47536 | 96 ft | 19 kts | 211° |
| 2026-04-28 16:00 | 33.50224 | 126.47492 | 94 ft | 8 kts | 206° |
| 2026-04-28 16:00 | 33.50173 | 126.47503 | 94 ft | 8 kts | 131° |
| 2026-04-28 16:01 | 33.50169 | 126.47565 | 93 ft | 8 kts | 72° |
| 2026-04-28 16:01 | 33.50190 | 126.47611 | 95 ft | 0 kts | 58° |